Bancroft, Nebraska
Current Conditions -  °F | °C
As of 11:54 AM on Friday 24 Oct 2014 (Local Time) from KTQE Reporting Station
Clear Clear  
Wind Chill: 68°   Ceiling: Unl
Heat Index: 68°   Visibility: 10mi
Dew Point: 57°   Wind: 8mph
Humidity: 68%   Direction: 270°W
Pressure: 29.92"   Gusts: NA
Location:  42.01°N, 96.57°W
Report Text: KTQE 241654Z AUTO 27007KT 10SM CLR 20/14 A2992 RMK AO2 SLP125 T02000139
Loading
Personal Weather Stations






























Interactive Weather Map
Tropical Storm Tracking
New forecast layout! Learn more

10-Day Weather Forecast

Advertisements
Track Severe Weather on mobile